Time;durP1;ratioP1;P1;durP2;ratioP2;P2;SDS_P1;SDS_P2;PMS_P1;PMS_P2;Temp;Humidity;BMP_temperature;BMP_pressure;BME280_temperature;BME280_humidity;BME280_pressure;Samples;Min_cycle;Max_cycle;Signal;HPM_P1;HPM_P2
2021/06/22 00:01:18;;;;;;;11.20;10.20;;;;;;;24.55;60.48;94150.81;834071;71;33220;-81
2021/06/22 00:16:14;;;;;;;11.10;10.10;;;;;;;24.50;60.61;94168.63;827754;71;32699;-82
2021/06/22 00:31:17;;;;;;;10.43;9.53;;;;;;;24.45;60.96;94164.20;827778;71;32715;-82
2021/06/22 00:46:18;;;;;;;11.00;10.00;;;;;;;24.45;61.21;94133.34;827723;71;32772;-80
2021/06/22 01:01:11;;;;;;;12.50;10.00;;;;;;;24.27;61.90;94123.97;834295;71;30296;-82
2021/06/22 01:16:23;;;;;;;10.80;9.70;;;;;;;24.35;61.57;94133.55;828567;71;29753;-83
2021/06/22 01:31:12;;;;;;;10.47;9.30;;;;;;;24.38;61.39;94109.41;834269;71;30827;-81
2021/06/22 01:46:15;;;;;;;10.40;9.37;;;;;;;24.40;61.53;94127.22;827603;71;33207;-82
2021/06/22 02:01:20;;;;;;;10.97;9.97;;;;;;;24.35;61.75;94146.40;827814;71;33604;-82
2021/06/22 02:16:09;;;;;;;10.40;9.30;;;;;;;24.29;62.13;94149.28;829179;71;30397;-83
2021/06/22 02:31:10;;;;;;;10.30;9.30;;;;;;;24.29;62.47;94141.23;830023;71;30375;-82
2021/06/22 02:46:08;;;;;;;10.20;9.30;;;;;;;24.24;62.86;94121.49;830239;70;30110;-82
2021/06/22 03:16:15;;;;;;;9.93;9.03;;;;;;;24.24;63.18;94138.92;828168;71;33240;-82
2021/06/22 03:31:18;;;;;;;9.60;8.70;;;;;;;24.32;62.88;94151.76;827871;71;32217;-82
2021/06/22 03:46:19;;;;;;;9.37;8.67;;;;;;;24.44;62.73;94146.00;834140;71;31684;-83
2021/06/22 04:01:08;;;;;;;9.70;8.80;;;;;;;24.55;62.71;94163.45;794567;74;28831;-80
2021/06/22 04:16:12;;;;;;;9.87;8.87;;;;;;;24.72;67.40;94169.95;828822;71;30950;-75
2021/06/22 04:31:08;;;;;;;48.23;43.43;;;;;;;25.10;65.31;94171.02;828466;71;28715;-78
2021/06/22 04:46:14;;;;;;;12.10;10.77;;;;;;;25.52;62.47;94198.12;827444;71;32244;-77
2021/06/22 05:01:19;;;;;;;12.00;9.93;;;;;;;25.94;61.09;94190.44;834220;71;32099;-80
2021/06/22 05:16:10;;;;;;;10.60;9.70;;;;;;;26.46;59.80;94194.30;828405;71;29800;-79
2021/06/22 05:31:29;;;;;;;10.07;9.17;;;;;;;;;;819497;71;31884;-80
2021/06/22 05:46:14;;;;;;;9.77;8.97;;;;;;;;;;828191;71;31740;-77
2021/06/22 06:01:09;;;;;;;10.40;9.47;;;;;;;27.62;55.89;94206.26;810311;71;29202;-80
2021/06/22 06:16:20;;;;;;;11.53;10.33;;;;;;;27.54;56.01;94208.27;823904;71;32273;-78
2021/06/22 07:01:09;;;;;;;11.40;10.30;;;;;;;27.38;56.07;94242.53;828237;71;29862;-75
2021/06/22 07:31:12;;;;;;;11.90;10.70;;;;;;;27.89;55.90;94248.12;810926;71;30788;-80
2021/06/22 07:46:15;;;;;;;13.00;11.30;;;;;;;27.43;57.60;94244.01;828856;71;31822;-75
2021/06/22 08:16:14;;;;;;;16.77;12.53;;;;;;;28.46;55.60;94244.44;827770;71;32343;-80
2021/06/22 08:31:16;;;;;;;12.27;11.07;;;;;;;28.19;56.59;94235.02;829668;71;30088;-82
2021/06/22 09:16:17;;;;;;;19.73;14.13;;;;;;;29.77;52.33;94232.38;829779;71;28872;-78
2021/06/22 09:31:18;;;;;;;15.73;14.10;;;;;;;29.85;51.84;94231.05;829440;71;31794;-80
2021/06/22 10:01:29;;;;;;;16.40;14.37;;;;;;;30.29;51.42;94234.33;828554;71;29906;-88
2021/06/22 10:31:15;;;;;;;19.20;14.37;;;;;;;31.88;47.32;94205.52;825990;71;30874;-85
2021/06/22 10:46:41;;;;;;;16.43;13.50;;;;;;;33.00;45.36;94207.52;821011;69;30822;-87
2021/06/22 11:01:12;;;;;;;13.93;12.37;;;;;;;33.73;43.22;94198.55;823871;71;27776;-82
2021/06/22 11:16:23;;;;;;;17.80;11.50;;;;;;;34.06;41.81;94198.70;823730;71;27620;-85
2021/06/22 11:31:45;;;;;;;18.63;12.20;;;;;;;34.47;40.35;94193.44;822154;71;30902;-86
2021/06/22 11:46:28;;;;;;;18.77;11.80;;;;;;;34.65;39.57;94188.66;826137;71;31904;-84
2021/06/22 12:01:14;;;;;;;21.10;9.93;;;;;;;34.78;38.44;94175.49;822052;71;31857;-84
2021/06/22 12:16:23;;;;;;;19.47;10.07;;;;;;;35.01;37.92;94162.61;822083;71;31918;-82
2021/06/22 12:31:09;;;;;;;18.87;8.77;;;;;;;35.13;36.71;94152.01;822223;71;29139;-84
2021/06/22 12:46:17;;;;;;;19.67;8.70;;;;;;;35.21;35.31;94149.89;833968;71;31597;-85
2021/06/22 13:01:39;;;;;;;20.17;9.43;;;;;;;34.74;35.47;94147.63;834360;71;32224;-85
2021/06/22 13:16:12;;;;;;;20.80;10.50;;;;;;;33.23;40.03;94155.42;828652;71;29751;-87
2021/06/22 13:31:18;;;;;;;21.00;9.90;;;;;;;32.80;40.38;94167.01;822743;70;31889;-83
2021/06/22 13:46:28;;;;;;;17.00;9.63;;;;;;;32.67;41.46;94161.02;835656;71;29260;-82
2021/06/22 14:01:10;;;;;;;19.10;9.17;;;;;;;31.84;42.69;94158.72;834844;71;30047;-84
2021/06/22 14:16:08;;;;;;;22.70;8.60;;;;;;;31.18;43.60;94149.36;835881;71;28232;-84
2021/06/22 14:31:08;;;;;;;14.73;8.97;;;;;;;31.36;42.12;94157.75;828863;71;28813;-86
2021/06/22 14:46:10;;;;;;;20.67;9.27;;;;;;;31.20;42.78;94161.89;828599;71;29403;-84
2021/06/22 15:16:12;;;;;;;17.80;9.30;;;;;;;31.02;43.56;94165.83;829858;71;30984;-84
2021/06/22 15:31:08;;;;;;;18.03;8.90;;;;;;;31.14;43.21;94148.09;829073;71;29786;-84
2021/06/22 15:46:16;;;;;;;13.77;8.73;;;;;;;31.30;43.06;94138.53;834400;71;31806;-84
2021/06/22 16:01:14;;;;;;;17.87;8.73;;;;;;;31.17;43.19;94141.83;827762;71;33233;-85
2021/06/22 16:16:14;;;;;;;26.63;8.87;;;;;;;30.95;43.69;94136.22;827879;71;31887;-85
2021/06/22 16:31:23;;;;;;;18.67;9.90;;;;;;;30.69;44.33;94144.20;827954;71;31760;-86
2021/06/22 16:46:16;;;;;;;18.43;8.90;;;;;;;30.52;44.64;94152.95;834169;71;32814;-84
2021/06/22 17:01:15;;;;;;;14.97;7.90;;;;;;;30.31;45.68;94171.85;828517;71;31825;-85
2021/06/22 17:16:14;;;;;;;22.45;9.50;;;;;;;30.05;47.28;94176.28;823080;71;30781;-84
2021/06/22 17:31:16;;;;;;;17.60;8.13;;;;;;;29.74;48.17;94187.97;835368;71;32769;-84
2021/06/22 17:46:19;;;;;;;15.97;8.70;;;;;;;29.40;49.29;94201.20;827538;71;33355;-81
2021/06/22 18:01:14;;;;;;;19.67;9.47;;;;;;;28.99;50.61;94213.70;827709;71;32717;-81
2021/06/22 18:16:15;;;;;;;17.30;11.00;;;;;;;28.62;52.91;94227.05;834040;71;32907;-84
2021/06/22 18:31:15;;;;;;;12.50;9.03;;;;;;;28.31;57.12;94230.41;827408;71;33154;-84
2021/06/22 18:46:33;;;;;;;20.43;9.50;;;;;;;28.03;56.47;94238.32;821157;70;32813;-83
2021/06/22 19:02:00;;;;;;;;;;;;;;;;;;;;;
2021/06/22 19:16:36;;;;;;;20.13;9.83;;;;;;;27.47;56.57;94266.89;780450;73;32915;-84
2021/06/22 19:31:08;;;;;;;22.30;10.93;;;;;;;27.31;56.76;94291.69;820021;71;29738;-78
2021/06/22 19:46:08;;;;;;;25.73;11.50;;;;;;;;;;819276;71;30967;-78
